Impacts METAR Board
IDs:

KCFD - Bryan/Coulter Fld, TX, US

Updated at: 0000 UTC 19 Oct 2019
Potential Impact None Slight Moderate High
Time 18/12Z 18/13Z 18/14Z 18/15Z 18/16Z 18/17Z 18/18Z 18/19Z 18/20Z 18/21Z 18/22Z 18/23Z 19/00Z
Temp51 51 55 61 65 70 74 77 79 80 81 81 75
Dewpt51 51 55 57 55 52 51 51 49 48 48 48 53
Altim29.93 29.92 29.91 29.92 29.91 29.89 29.87 29.82 29.79 29.77 29.76 29.75 29.75
VIS10 10 10 10 10 10 10 10 10 10 10 10 10
CIG-- -- -- -- -- -- -- -- -- -- -- -- --
CoverCLRCLRCLRCLRCLRCLRCLRCLRCLRCLRCLRCLRCLR
FltCatVFRVFRVFRVFRVFRVFRVFRVFRVFRVFRVFRVFRVFR
WX--------------------------
WDir31000500606050016070160100
WSpd3 0 0 5 0 3 4 3 0 3 4 4 3
WGst-- -- -- -- -- -- -- -- -- -- -- -- --
Raw hourly METARs
KCFD 181155Z AUTO 31003KT 10SM CLR 10/10 A2993 RMK AO2 T01030103 10121 20099
KCFD 181255Z AUTO 00000KT 10SM CLR 10/10 A2992 RMK AO2 T01040104
KCFD 181355Z AUTO 00000KT 10SM CLR 13/13 A2991 RMK AO2 T01290129
KCFD 181455Z AUTO 05005KT 10SM CLR 16/14 A2992 RMK AO2 T01610138
KCFD 181555Z AUTO 00000KT 10SM CLR 19/13 A2991 RMK AO2 T01860129
KCFD 181655Z AUTO 06003KT 10SM CLR 21/11 A2989 RMK AO2 T02130109
KCFD 181755Z AUTO 06004KT 10SM CLR 23/10 A2987 RMK AO2 T02340103 10234 20092
KCFD 181855Z AUTO 05003KT 10SM CLR 25/10 A2982 RMK AO2 T02480103
KCFD 181955Z AUTO 00000KT 10SM CLR 26/10 A2979 RMK AO2 T02590096
KCFD 182055Z AUTO 16003KT 10SM CLR 27/09 A2977 RMK AO2 T02680088
KCFD 182155Z AUTO 07004KT 10SM CLR 27/09 A2976 RMK AO2 T02710090
KCFD 182255Z AUTO 16004KT 10SM CLR 27/09 A2975 RMK AO2 T02700089
KCFD 182355Z AUTO 10003KT 10SM CLR 24/12 A2975 RMK AO2 T02400116 10276 20230